sensor_id;sensor_type;location;lat;lon;timestamp;pressure;altitude;pressure_sealevel;temperature;humidity
62057;BME280;48016;50.284;18.860;2023-04-07T00:02:00;98126.61;;;1.38;80.00
62057;BME280;48016;50.284;18.860;2023-04-07T00:04:27;98119.97;;;1.38;80.01
62057;BME280;48016;50.284;18.860;2023-04-07T00:06:53;98115.17;;;1.38;79.94
62057;BME280;48016;50.284;18.860;2023-04-07T00:09:20;98112.84;;;1.38;79.91
62057;BME280;48016;50.284;18.860;2023-04-07T00:11:46;98112.16;;;1.40;79.88
62057;BME280;48016;50.284;18.860;2023-04-07T00:14:14;98111.53;;;1.40;79.95
62057;BME280;48016;50.284;18.860;2023-04-07T00:16:40;98112.23;;;1.40;80.01
62057;BME280;48016;50.284;18.860;2023-04-07T00:19:07;98107.08;;;1.41;79.99
62057;BME280;48016;50.284;18.860;2023-04-07T00:21:33;98104.00;;;1.39;80.01
62057;BME280;48016;50.284;18.860;2023-04-07T00:24:00;98101.61;;;1.37;80.03
62057;BME280;48016;50.284;18.860;2023-04-07T00:26:27;98099.32;;;1.36;80.05
62057;BME280;48016;50.284;18.860;2023-04-07T00:28:57;98097.80;;;1.36;80.08
62057;BME280;48016;50.284;18.860;2023-04-07T00:31:24;98097.10;;;1.38;80.00
62057;BME280;48016;50.284;18.860;2023-04-07T00:33:51;98089.23;;;1.37;79.92
62057;BME280;48016;50.284;18.860;2023-04-07T00:36:18;98087.63;;;1.35;79.90
62057;BME280;48016;50.284;18.860;2023-04-07T00:38:45;98087.56;;;1.36;79.92
62057;BME280;48016;50.284;18.860;2023-04-07T00:41:12;98083.67;;;1.36;79.84
62057;BME280;48016;50.284;18.860;2023-04-07T00:43:38;98080.66;;;1.34;79.92
62057;BME280;48016;50.284;18.860;2023-04-07T00:46:05;98078.16;;;1.33;79.67
62057;BME280;48016;50.284;18.860;2023-04-07T00:48:31;98076.06;;;1.29;79.78
62057;BME280;48016;50.284;18.860;2023-04-07T00:50:58;98075.77;;;1.27;79.87
62057;BME280;48016;50.284;18.860;2023-04-07T00:53:25;98071.66;;;1.26;80.23
62057;BME280;48016;50.284;18.860;2023-04-07T00:55:51;98064.30;;;1.25;80.08
62057;BME280;48016;50.284;18.860;2023-04-07T00:58:18;98067.02;;;1.23;79.95
62057;BME280;48016;50.284;18.860;2023-04-07T01:00:48;98066.50;;;1.22;80.16
62057;BME280;48016;50.284;18.860;2023-04-07T01:03:20;98063.77;;;1.22;80.34
62057;BME280;48016;50.284;18.860;2023-04-07T01:06:00;98064.25;;;1.24;80.30
62057;BME280;48016;50.284;18.860;2023-04-07T01:08:58;98063.18;;;1.24;80.40
62057;BME280;48016;50.284;18.860;2023-04-07T01:11:43;98060.80;;;1.22;80.09
62057;BME280;48016;50.284;18.860;2023-04-07T01:14:14;98060.18;;;1.17;80.32
62057;BME280;48016;50.284;18.860;2023-04-07T01:16:48;98057.33;;;1.12;80.31
62057;BME280;48016;50.284;18.860;2023-04-07T01:22:10;98049.24;;;1.06;80.39
62057;BME280;48016;50.284;18.860;2023-04-07T01:29:53;98048.48;;;0.98;80.48
62057;BME280;48016;50.284;18.860;2023-04-07T01:32:21;98048.67;;;0.98;80.89
62057;BME280;48016;50.284;18.860;2023-04-07T01:34:51;98050.98;;;0.98;80.87
62057;BME280;48016;50.284;18.860;2023-04-07T01:37:19;98049.51;;;0.99;80.63
62057;BME280;48016;50.284;18.860;2023-04-07T01:39:46;98048.41;;;1.00;80.79
62057;BME280;48016;50.284;18.860;2023-04-07T01:42:14;98046.45;;;0.99;80.99
62057;BME280;48016;50.284;18.860;2023-04-07T01:44:42;98047.17;;;1.00;80.91
62057;BME280;48016;50.284;18.860;2023-04-07T01:47:08;98046.43;;;1.00;80.79
62057;BME280;48016;50.284;18.860;2023-04-07T01:49:36;98050.73;;;1.00;80.81
62057;BME280;48016;50.284;18.860;2023-04-07T01:52:03;98050.37;;;1.00;80.78
62057;BME280;48016;50.284;18.860;2023-04-07T01:54:30;98047.70;;;0.98;80.83
62057;BME280;48016;50.284;18.860;2023-04-07T01:56:57;98046.14;;;0.98;81.04
62057;BME280;48016;50.284;18.860;2023-04-07T01:59:24;98042.98;;;0.97;80.83
62057;BME280;48016;50.284;18.860;2023-04-07T02:01:50;98039.88;;;0.96;81.12
62057;BME280;48016;50.284;18.860;2023-04-07T02:07:30;98034.89;;;1.00;81.21
62057;BME280;48016;50.284;18.860;2023-04-07T02:09:59;98033.86;;;1.01;81.08
62057;BME280;48016;50.284;18.860;2023-04-07T02:12:29;98037.11;;;1.04;81.03
62057;BME280;48016;50.284;18.860;2023-04-07T02:14:56;98036.47;;;1.04;81.15
62057;BME280;48016;50.284;18.860;2023-04-07T02:17:24;98030.23;;;1.06;81.21
62057;BME280;48016;50.284;18.860;2023-04-07T02:19:52;98028.98;;;1.05;81.06
62057;BME280;48016;50.284;18.860;2023-04-07T02:22:19;98027.28;;;1.07;80.96
62057;BME280;48016;50.284;18.860;2023-04-07T02:24:46;98031.22;;;1.07;81.08
62057;BME280;48016;50.284;18.860;2023-04-07T02:27:13;98035.16;;;1.08;81.18
62057;BME280;48016;50.284;18.860;2023-04-07T02:29:39;98036.93;;;1.08;81.04
62057;BME280;48016;50.284;18.860;2023-04-07T02:32:06;98039.22;;;1.08;81.23
62057;BME280;48016;50.284;18.860;2023-04-07T02:34:33;98041.17;;;1.09;81.10
62057;BME280;48016;50.284;18.860;2023-04-07T02:36:59;98044.01;;;1.08;81.02
62057;BME280;48016;50.284;18.860;2023-04-07T02:39:26;98042.08;;;1.05;80.87
62057;BME280;48016;50.284;18.860;2023-04-07T02:41:53;98040.19;;;1.02;80.87
62057;BME280;48016;50.284;18.860;2023-04-07T02:44:19;98042.10;;;1.01;81.18
62057;BME280;48016;50.284;18.860;2023-04-07T02:46:46;98037.91;;;1.00;81.19
62057;BME280;48016;50.284;18.860;2023-04-07T02:49:12;98039.55;;;1.00;81.28
62057;BME280;48016;50.284;18.860;2023-04-07T02:51:39;98043.52;;;0.97;81.41
62057;BME280;48016;50.284;18.860;2023-04-07T02:54:06;98044.15;;;0.92;81.34
62057;BME280;48016;50.284;18.860;2023-04-07T02:56:32;98039.42;;;0.88;81.46
62057;BME280;48016;50.284;18.860;2023-04-07T02:58:59;98033.83;;;0.88;81.61
62057;BME280;48016;50.284;18.860;2023-04-07T03:01:25;98028.57;;;0.86;81.68
62057;BME280;48016;50.284;18.860;2023-04-07T03:03:53;98025.91;;;0.84;81.89
62057;BME280;48016;50.284;18.860;2023-04-07T03:06:19;98024.81;;;0.86;81.83
62057;BME280;48016;50.284;18.860;2023-04-07T03:08:46;98025.51;;;0.87;81.85
62057;BME280;48016;50.284;18.860;2023-04-07T03:11:12;98026.98;;;0.86;81.75
62057;BME280;48016;50.284;18.860;2023-04-07T03:13:39;98025.55;;;0.86;81.96
62057;BME280;48016;50.284;18.860;2023-04-07T03:16:06;98021.90;;;0.87;82.03
62057;BME280;48016;50.284;18.860;2023-04-07T03:18:33;98024.52;;;0.86;82.08
62057;BME280;48016;50.284;18.860;2023-04-07T03:20:59;98025.75;;;0.84;81.92
62057;BME280;48016;50.284;18.860;2023-04-07T03:23:26;98027.34;;;0.84;82.01
62057;BME280;48016;50.284;18.860;2023-04-07T03:25:56;98020.63;;;0.83;82.09
62057;BME280;48016;50.284;18.860;2023-04-07T03:28:23;98020.54;;;0.82;82.11
62057;BME280;48016;50.284;18.860;2023-04-07T03:30:49;98019.27;;;0.80;82.05
62057;BME280;48016;50.284;18.860;2023-04-07T03:33:16;98027.98;;;0.81;82.41
62057;BME280;48016;50.284;18.860;2023-04-07T03:35:43;98022.14;;;0.82;82.48
62057;BME280;48016;50.284;18.860;2023-04-07T03:38:09;98014.70;;;0.83;82.53
62057;BME280;48016;50.284;18.860;2023-04-07T03:40:36;98014.70;;;0.87;82.36
62057;BME280;48016;50.284;18.860;2023-04-07T03:43:03;98014.33;;;0.89;82.36
62057;BME280;48016;50.284;18.860;2023-04-07T03:45:29;98009.26;;;0.90;82.22
62057;BME280;48016;50.284;18.860;2023-04-07T03:47:56;98008.84;;;0.89;82.31
62057;BME280;48016;50.284;18.860;2023-04-07T03:50:23;98011.22;;;0.88;82.32
62057;BME280;48016;50.284;18.860;2023-04-07T03:52:49;98008.82;;;0.89;82.32
62057;BME280;48016;50.284;18.860;2023-04-07T03:55:16;98005.00;;;0.88;82.19
62057;BME280;48016;50.284;18.860;2023-04-07T03:57:43;98014.70;;;0.89;82.32
62057;BME280;48016;50.284;18.860;2023-04-07T04:00:10;98013.52;;;0.90;82.34
62057;BME280;48016;50.284;18.860;2023-04-07T04:02:37;98017.45;;;0.89;82.44
62057;BME280;48016;50.284;18.860;2023-04-07T04:05:04;98023.30;;;0.88;82.34
62057;BME280;48016;50.284;18.860;2023-04-07T04:07:30;98027.27;;;0.86;82.43
62057;BME280;48016;50.284;18.860;2023-04-07T04:09:58;98028.00;;;0.86;82.49
62057;BME280;48016;50.284;18.860;2023-04-07T04:12:25;98027.31;;;0.86;82.48
62057;BME280;48016;50.284;18.860;2023-04-07T04:14:52;98026.20;;;0.86;82.50
62057;BME280;48016;50.284;18.860;2023-04-07T04:17:19;98022.52;;;0.87;82.66
62057;BME280;48016;50.284;18.860;2023-04-07T04:19:45;98019.29;;;0.89;82.67
62057;BME280;48016;50.284;18.860;2023-04-07T04:22:12;98020.27;;;0.89;82.69
62057;BME280;48016;50.284;18.860;2023-04-07T04:24:39;98023.80;;;0.92;82.80
62057;BME280;48016;50.284;18.860;2023-04-07T04:27:07;98025.40;;;0.93;82.65
62057;BME280;48016;50.284;18.860;2023-04-07T04:29:33;98024.86;;;0.93;82.61
62057;BME280;48016;50.284;18.860;2023-04-07T04:32:00;98025.77;;;0.91;82.62
62057;BME280;48016;50.284;18.860;2023-04-07T04:34:26;98027.65;;;0.92;82.74
62057;BME280;48016;50.284;18.860;2023-04-07T04:36:53;98027.44;;;0.92;82.65
62057;BME280;48016;50.284;18.860;2023-04-07T04:39:19;98030.66;;;0.95;82.84
62057;BME280;48016;50.284;18.860;2023-04-07T04:41:46;98031.98;;;0.97;82.72
62057;BME280;48016;50.284;18.860;2023-04-07T04:44:13;98031.80;;;0.98;82.89
62057;BME280;48016;50.284;18.860;2023-04-07T04:46:39;98030.59;;;0.99;82.74
62057;BME280;48016;50.284;18.860;2023-04-07T04:49:06;98023.83;;;0.97;82.79
62057;BME280;48016;50.284;18.860;2023-04-07T04:51:33;98027.14;;;0.97;82.98
62057;BME280;48016;50.284;18.860;2023-04-07T04:54:00;98024.20;;;0.98;82.74
62057;BME280;48016;50.284;18.860;2023-04-07T04:56:27;98027.72;;;0.99;82.95
62057;BME280;48016;50.284;18.860;2023-04-07T04:58:53;98028.80;;;1.05;83.29
62057;BME280;48016;50.284;18.860;2023-04-07T05:01:20;98030.47;;;1.10;82.82
62057;BME280;48016;50.284;18.860;2023-04-07T05:03:47;98031.27;;;1.09;82.95
62057;BME280;48016;50.284;18.860;2023-04-07T05:06:13;98032.80;;;1.10;82.71
62057;BME280;48016;50.284;18.860;2023-04-07T05:08:40;98035.25;;;1.11;82.77
62057;BME280;48016;50.284;18.860;2023-04-07T05:11:07;98035.58;;;1.11;82.69
62057;BME280;48016;50.284;18.860;2023-04-07T05:13:34;98038.79;;;1.10;82.77
62057;BME280;48016;50.284;18.860;2023-04-07T05:16:00;98041.14;;;1.09;82.86
62057;BME280;48016;50.284;18.860;2023-04-07T05:18:27;98045.33;;;1.11;82.97
62057;BME280;48016;50.284;18.860;2023-04-07T05:20:53;98039.98;;;1.14;83.07
62057;BME280;48016;50.284;18.860;2023-04-07T05:23:20;98038.80;;;1.18;82.76
62057;BME280;48016;50.284;18.860;2023-04-07T05:25:47;98038.92;;;1.20;82.68
62057;BME280;48016;50.284;18.860;2023-04-07T05:28:14;98035.65;;;1.20;82.60
62057;BME280;48016;50.284;18.860;2023-04-07T05:30:40;98038.21;;;1.17;82.61
62057;BME280;48016;50.284;18.860;2023-04-07T05:33:07;98039.77;;;1.13;82.41
62057;BME280;48016;50.284;18.860;2023-04-07T05:35:34;98037.88;;;1.12;82.71
62057;BME280;48016;50.284;18.860;2023-04-07T05:38:00;98036.48;;;1.12;82.71
62057;BME280;48016;50.284;18.860;2023-04-07T05:40:27;98034.84;;;1.14;82.68
62057;BME280;48016;50.284;18.860;2023-04-07T05:42:55;98029.39;;;1.14;82.56
62057;BME280;48016;50.284;18.860;2023-04-07T05:45:22;98028.87;;;1.12;82.70
62057;BME280;48016;50.284;18.860;2023-04-07T05:47:49;98029.52;;;1.11;82.56
62057;BME280;48016;50.284;18.860;2023-04-07T05:50:16;98029.33;;;1.13;82.69
62057;BME280;48016;50.284;18.860;2023-04-07T05:52:43;98032.85;;;1.16;82.55
62057;BME280;48016;50.284;18.860;2023-04-07T05:55:10;98034.24;;;1.17;82.45
62057;BME280;48016;50.284;18.860;2023-04-07T05:57:36;98029.41;;;1.17;82.67
62057;BME280;48016;50.284;18.860;2023-04-07T06:00:03;98031.33;;;1.17;82.50
62057;BME280;48016;50.284;18.860;2023-04-07T06:02:30;98037.31;;;1.17;82.64
62057;BME280;48016;50.284;18.860;2023-04-07T06:04:57;98037.64;;;1.17;82.69
62057;BME280;48016;50.284;18.860;2023-04-07T06:07:23;98038.56;;;1.21;82.69
62057;BME280;48016;50.284;18.860;2023-04-07T06:09:50;98037.98;;;1.25;82.79
62057;BME280;48016;50.284;18.860;2023-04-07T06:12:16;98046.03;;;1.28;82.75
62057;BME280;48016;50.284;18.860;2023-04-07T06:14:49;98048.70;;;1.31;82.84
62057;BME280;48016;50.284;18.860;2023-04-07T06:17:16;98046.95;;;1.36;82.74
62057;BME280;48016;50.284;18.860;2023-04-07T06:19:43;98045.40;;;1.42;82.89
62057;BME280;48016;50.284;18.860;2023-04-07T06:22:10;98042.37;;;1.50;82.88
62057;BME280;48016;50.284;18.860;2023-04-07T06:24:37;98044.45;;;1.56;82.80
62057;BME280;48016;50.284;18.860;2023-04-07T06:27:04;98039.45;;;1.62;82.58
62057;BME280;48016;50.284;18.860;2023-04-07T06:29:31;98034.65;;;1.61;82.40
62057;BME280;48016;50.284;18.860;2023-04-07T06:31:58;98032.66;;;1.60;82.37
62057;BME280;48016;50.284;18.860;2023-04-07T06:34:25;98030.74;;;1.61;82.39
62057;BME280;48016;50.284;18.860;2023-04-07T06:36:52;98031.45;;;1.63;82.42
62057;BME280;48016;50.284;18.860;2023-04-07T06:39:19;98031.16;;;1.66;82.40
62057;BME280;48016;50.284;18.860;2023-04-07T06:41:45;98034.02;;;1.66;82.35
62057;BME280;48016;50.284;18.860;2023-04-07T06:44:12;98031.33;;;1.66;82.31
62057;BME280;48016;50.284;18.860;2023-04-07T06:46:42;98034.04;;;1.69;82.22
62057;BME280;48016;50.284;18.860;2023-04-07T06:49:09;98038.13;;;1.70;82.01
62057;BME280;48016;50.284;18.860;2023-04-07T06:51:37;98037.23;;;1.67;81.96
62057;BME280;48016;50.284;18.860;2023-04-07T06:54:03;98029.92;;;1.61;81.99
62057;BME280;48016;50.284;18.860;2023-04-07T06:56:32;98024.95;;;1.57;82.14
62057;BME280;48016;50.284;18.860;2023-04-07T06:58:59;98024.55;;;1.58;82.03
62057;BME280;48016;50.284;18.860;2023-04-07T07:01:26;98026.16;;;1.64;81.90
62057;BME280;48016;50.284;18.860;2023-04-07T07:03:53;98032.92;;;1.70;82.05
62057;BME280;48016;50.284;18.860;2023-04-07T07:06:20;98035.89;;;1.75;81.86
62057;BME280;48016;50.284;18.860;2023-04-07T07:08:46;98041.86;;;1.76;81.96
62057;BME280;48016;50.284;18.860;2023-04-07T07:11:13;98046.16;;;1.77;81.85
62057;BME280;48016;50.284;18.860;2023-04-07T07:13:40;98044.34;;;1.82;81.90
62057;BME280;48016;50.284;18.860;2023-04-07T07:16:06;98045.14;;;1.87;81.94
62057;BME280;48016;50.284;18.860;2023-04-07T07:18:34;98045.14;;;1.93;81.71
62057;BME280;48016;50.284;18.860;2023-04-07T07:21:02;98052.25;;;1.96;81.80
62057;BME280;48016;50.284;18.860;2023-04-07T07:23:29;98051.50;;;2.03;81.81
62057;BME280;48016;50.284;18.860;2023-04-07T07:25:55;98050.55;;;2.15;81.63
62057;BME280;48016;50.284;18.860;2023-04-07T07:28:22;98050.55;;;2.19;81.58
62057;BME280;48016;50.284;18.860;2023-04-07T07:30:49;98051.69;;;2.21;81.50
62057;BME280;48016;50.284;18.860;2023-04-07T07:33:16;98057.59;;;2.22;81.44
62057;BME280;48016;50.284;18.860;2023-04-07T07:35:42;98055.77;;;2.27;81.47
62057;BME280;48016;50.284;18.860;2023-04-07T07:38:10;98057.39;;;2.31;81.28
62057;BME280;48016;50.284;18.860;2023-04-07T07:40:36;98058.69;;;2.33;81.20
62057;BME280;48016;50.284;18.860;2023-04-07T07:43:03;98058.98;;;2.35;81.20
62057;BME280;48016;50.284;18.860;2023-04-07T07:45:30;98064.06;;;2.35;81.12
62057;BME280;48016;50.284;18.860;2023-04-07T07:47:56;98066.44;;;2.37;81.08
62057;BME280;48016;50.284;18.860;2023-04-07T07:50:23;98066.92;;;2.39;80.94
62057;BME280;48016;50.284;18.860;2023-04-07T07:52:50;98067.42;;;2.36;81.02
62057;BME280;48016;50.284;18.860;2023-04-07T07:55:16;98073.22;;;2.29;80.98
62057;BME280;48016;50.284;18.860;2023-04-07T07:57:43;98073.59;;;2.25;80.98
62057;BME280;48016;50.284;18.860;2023-04-07T08:00:10;98079.30;;;2.21;80.83
62057;BME280;48016;50.284;18.860;2023-04-07T08:02:37;98073.69;;;2.14;81.00
62057;BME280;48016;50.284;18.860;2023-04-07T08:05:04;98074.42;;;2.16;81.31
62057;BME280;48016;50.284;18.860;2023-04-07T08:07:31;98071.42;;;2.25;81.28
62057;BME280;48016;50.284;18.860;2023-04-07T08:09:57;98082.45;;;2.37;81.15
62057;BME280;48016;50.284;18.860;2023-04-07T08:12:24;98085.02;;;2.50;81.45
62057;BME280;48016;50.284;18.860;2023-04-07T08:14:51;98074.55;;;2.61;81.14
62057;BME280;48016;50.284;18.860;2023-04-07T08:17:18;98061.98;;;2.66;80.80
62057;BME280;48016;50.284;18.860;2023-04-07T08:19:45;98062.43;;;2.66;80.82
62057;BME280;48016;50.284;18.860;2023-04-07T08:22:11;98066.61;;;2.67;80.79
62057;BME280;48016;50.284;18.860;2023-04-07T08:24:38;98058.67;;;2.72;80.80
62057;BME280;48016;50.284;18.860;2023-04-07T08:27:05;98050.89;;;2.77;80.65
62057;BME280;48016;50.284;18.860;2023-04-07T08:29:31;98049.43;;;2.76;80.45
62057;BME280;48016;50.284;18.860;2023-04-07T08:31:58;98043.13;;;2.80;80.40
62057;BME280;48016;50.284;18.860;2023-04-07T08:34:25;98037.00;;;2.82;80.43
62057;BME280;48016;50.284;18.860;2023-04-07T08:36:51;98035.91;;;2.83;80.28
62057;BME280;48016;50.284;18.860;2023-04-07T08:39:18;98044.22;;;2.84;80.21
62057;BME280;48016;50.284;18.860;2023-04-07T08:41:46;98056.27;;;2.81;80.33
62057;BME280;48016;50.284;18.860;2023-04-07T08:44:14;98059.29;;;2.75;80.51
62057;BME280;48016;50.284;18.860;2023-04-07T08:46:42;98061.45;;;2.78;80.43
62057;BME280;48016;50.284;18.860;2023-04-07T08:49:10;98066.45;;;2.79;80.40
62057;BME280;48016;50.284;18.860;2023-04-07T08:51:45;98062.86;;;2.74;80.27
62057;BME280;48016;50.284;18.860;2023-04-07T08:54:16;98061.79;;;2.66;80.24
62057;BME280;48016;50.284;18.860;2023-04-07T08:56:44;98056.85;;;2.64;80.69
62057;BME280;48016;50.284;18.860;2023-04-07T08:59:12;98052.90;;;2.70;80.70
62057;BME280;48016;50.284;18.860;2023-04-07T09:01:39;98052.47;;;2.75;80.80
62057;BME280;48016;50.284;18.860;2023-04-07T09:04:09;98058.08;;;2.78;80.43
62057;BME280;48016;50.284;18.860;2023-04-07T09:06:37;98060.67;;;2.76;80.58
62057;BME280;48016;50.284;18.860;2023-04-07T09:09:04;98054.64;;;2.76;80.64
62057;BME280;48016;50.284;18.860;2023-04-07T09:11:36;98052.53;;;2.77;80.72
62057;BME280;48016;50.284;18.860;2023-04-07T09:14:03;98056.23;;;2.82;80.69
62057;BME280;48016;50.284;18.860;2023-04-07T09:16:30;98061.15;;;2.84;80.59
62057;BME280;48016;50.284;18.860;2023-04-07T09:18:57;98057.55;;;2.86;80.66
62057;BME280;48016;50.284;18.860;2023-04-07T09:21:24;98062.45;;;2.86;80.48
62057;BME280;48016;50.284;18.860;2023-04-07T09:23:52;98062.83;;;2.85;80.49
62057;BME280;48016;50.284;18.860;2023-04-07T09:26:25;98057.61;;;2.84;80.40
62057;BME280;48016;50.284;18.860;2023-04-07T09:28:57;98051.68;;;2.85;80.57
62057;BME280;48016;50.284;18.860;2023-04-07T09:34:30;98045.88;;;2.89;80.51
62057;BME280;48016;50.284;18.860;2023-04-07T09:36:57;98040.79;;;2.89;80.46
62057;BME280;48016;50.284;18.860;2023-04-07T09:39:25;98040.40;;;2.92;80.44
62057;BME280;48016;50.284;18.860;2023-04-07T09:41:52;98039.38;;;2.92;80.31
62057;BME280;48016;50.284;18.860;2023-04-07T09:44:20;98039.45;;;2.91;80.45
62057;BME280;48016;50.284;18.860;2023-04-07T09:46:57;98039.85;;;2.95;80.37
62057;BME280;48016;50.284;18.860;2023-04-07T09:49:25;98040.96;;;2.94;80.32
62057;BME280;48016;50.284;18.860;2023-04-07T09:54:45;98039.64;;;2.87;80.30
62057;BME280;48016;50.284;18.860;2023-04-07T09:57:12;98037.55;;;2.86;80.41
62057;BME280;48016;50.284;18.860;2023-04-07T09:59:44;98040.04;;;2.83;80.42
62057;BME280;48016;50.284;18.860;2023-04-07T10:02:11;98040.32;;;2.83;80.52
62057;BME280;48016;50.284;18.860;2023-04-07T10:04:38;98040.11;;;2.84;80.69
62057;BME280;48016;50.284;18.860;2023-04-07T10:07:05;98041.05;;;2.88;80.74
62057;BME280;48016;50.284;18.860;2023-04-07T10:09:32;98044.39;;;2.92;80.63
62057;BME280;48016;50.284;18.860;2023-04-07T10:11:59;98040.73;;;2.88;80.72
62057;BME280;48016;50.284;18.860;2023-04-07T10:14:32;98036.06;;;2.89;80.46
62057;BME280;48016;50.284;18.860;2023-04-07T10:17:02;98032.83;;;2.89;80.67
62057;BME280;48016;50.284;18.860;2023-04-07T10:19:30;98036.80;;;2.90;80.75
62057;BME280;48016;50.284;18.860;2023-04-07T10:22:01;98038.95;;;2.88;80.57
62057;BME280;48016;50.284;18.860;2023-04-07T10:27:06;98037.42;;;2.89;80.73
62057;BME280;48016;50.284;18.860;2023-04-07T10:29:36;98045.23;;;2.89;80.98
62057;BME280;48016;50.284;18.860;2023-04-07T10:32:06;98049.55;;;2.91;80.89
62057;BME280;48016;50.284;18.860;2023-04-07T10:34:56;98048.09;;;2.91;80.92
62057;BME280;48016;50.284;18.860;2023-04-07T10:37:24;98044.49;;;2.90;80.97
62057;BME280;48016;50.284;18.860;2023-04-07T10:42:47;98039.70;;;2.93;81.03
62057;BME280;48016;50.284;18.860;2023-04-07T10:45:13;98038.52;;;2.99;81.19
62057;BME280;48016;50.284;18.860;2023-04-07T10:48:09;98041.41;;;3.05;80.99
62057;BME280;48016;50.284;18.860;2023-04-07T10:50:37;98044.14;;;3.09;81.22
62057;BME280;48016;50.284;18.860;2023-04-07T10:53:08;98042.17;;;3.10;81.01
62057;BME280;48016;50.284;18.860;2023-04-07T10:55:42;98047.04;;;3.12;81.15
62057;BME280;48016;50.284;18.860;2023-04-07T11:03:39;98050.37;;;3.15;81.15
62057;BME280;48016;50.284;18.860;2023-04-07T11:06:08;98041.63;;;3.13;81.09
62057;BME280;48016;50.284;18.860;2023-04-07T11:08:40;98041.74;;;3.12;81.16
62057;BME280;48016;50.284;18.860;2023-04-07T11:11:10;98043.75;;;3.13;80.96
62057;BME280;48016;50.284;18.860;2023-04-07T11:13:47;98050.13;;;3.14;81.13
62057;BME280;48016;50.284;18.860;2023-04-07T11:16:16;98053.09;;;3.15;81.17
62057;BME280;48016;50.284;18.860;2023-04-07T11:18:43;98047.40;;;3.16;81.28
62057;BME280;48016;50.284;18.860;2023-04-07T11:21:11;98041.60;;;3.18;81.29
62057;BME280;48016;50.284;18.860;2023-04-07T11:23:39;98039.12;;;3.21;81.33
62057;BME280;48016;50.284;18.860;2023-04-07T11:26:07;98031.96;;;3.21;81.25
62057;BME280;48016;50.284;18.860;2023-04-07T11:28:36;98035.46;;;3.20;81.39
62057;BME280;48016;50.284;18.860;2023-04-07T11:31:10;98036.44;;;3.22;81.32
62057;BME280;48016;50.284;18.860;2023-04-07T11:33:38;98033.34;;;3.25;81.36
62057;BME280;48016;50.284;18.860;2023-04-07T11:36:06;98030.67;;;3.30;81.36
62057;BME280;48016;50.284;18.860;2023-04-07T11:38:37;98026.84;;;3.32;81.39
62057;BME280;48016;50.284;18.860;2023-04-07T11:41:11;98028.94;;;3.32;81.32
62057;BME280;48016;50.284;18.860;2023-04-07T11:43:39;98030.87;;;3.32;81.31
62057;BME280;48016;50.284;18.860;2023-04-07T11:48:34;98033.77;;;3.37;81.38
62057;BME280;48016;50.284;18.860;2023-04-07T11:51:01;98030.70;;;3.39;81.33
62057;BME280;48016;50.284;18.860;2023-04-07T11:53:30;98031.77;;;3.37;81.29
62057;BME280;48016;50.284;18.860;2023-04-07T11:56:12;98029.59;;;3.40;81.24
62057;BME280;48016;50.284;18.860;2023-04-07T11:58:49;98027.53;;;3.43;81.41
62057;BME280;48016;50.284;18.860;2023-04-07T12:01:17;98026.83;;;3.46;81.25
62057;BME280;48016;50.284;18.860;2023-04-07T12:03:55;98026.61;;;3.49;81.07
62057;BME280;48016;50.284;18.860;2023-04-07T12:09:01;98024.84;;;3.50;81.10
62057;BME280;48016;50.284;18.860;2023-04-07T12:11:28;98026.23;;;3.50;81.22
62057;BME280;48016;50.284;18.860;2023-04-07T12:13:55;98022.01;;;3.49;81.04
62057;BME280;48016;50.284;18.860;2023-04-07T12:16:22;98016.20;;;3.49;81.08
62057;BME280;48016;50.284;18.860;2023-04-07T12:18:49;98017.03;;;3.49;81.16
62057;BME280;48016;50.284;18.860;2023-04-07T12:21:19;98018.50;;;3.49;81.10
62057;BME280;48016;50.284;18.860;2023-04-07T12:23:46;98018.58;;;3.51;81.25
62057;BME280;48016;50.284;18.860;2023-04-07T12:26:12;98017.92;;;3.51;81.23
62057;BME280;48016;50.284;18.860;2023-04-07T12:28:39;98013.04;;;3.50;81.42
62057;BME280;48016;50.284;18.860;2023-04-07T12:31:06;98016.64;;;3.51;81.22
62057;BME280;48016;50.284;18.860;2023-04-07T12:33:32;98020.69;;;3.49;81.24
62057;BME280;48016;50.284;18.860;2023-04-07T12:35:59;98029.71;;;3.46;81.43
62057;BME280;48016;50.284;18.860;2023-04-07T12:38:26;98033.11;;;3.43;81.31
62057;BME280;48016;50.284;18.860;2023-04-07T12:40:54;98039.70;;;3.41;81.25
62057;BME280;48016;50.284;18.860;2023-04-07T12:43:20;98033.80;;;3.38;81.38
62057;BME280;48016;50.284;18.860;2023-04-07T12:45:47;98035.15;;;3.37;81.31
62057;BME280;48016;50.284;18.860;2023-04-07T12:48:13;98029.77;;;3.32;81.36
62057;BME280;48016;50.284;18.860;2023-04-07T12:50:41;98029.98;;;3.29;81.38
62057;BME280;48016;50.284;18.860;2023-04-07T12:53:08;98032.41;;;3.29;81.55
62057;BME280;48016;50.284;18.860;2023-04-07T12:55:35;98033.11;;;3.29;81.41
62057;BME280;48016;50.284;18.860;2023-04-07T12:58:02;98033.36;;;3.28;81.40
62057;BME280;48016;50.284;18.860;2023-04-07T13:00:29;98034.41;;;3.25;81.38
62057;BME280;48016;50.284;18.860;2023-04-07T13:02:56;98031.92;;;3.26;81.69
62057;BME280;48016;50.284;18.860;2023-04-07T13:05:23;98026.33;;;3.29;81.74
62057;BME280;48016;50.284;18.860;2023-04-07T13:07:50;98025.45;;;3.32;81.62
62057;BME280;48016;50.284;18.860;2023-04-07T13:10:16;98022.94;;;3.33;81.71
62057;BME280;48016;50.284;18.860;2023-04-07T13:12:43;98021.95;;;3.34;81.64
62057;BME280;48016;50.284;18.860;2023-04-07T13:15:10;98022.54;;;3.32;81.64
62057;BME280;48016;50.284;18.860;2023-04-07T13:17:37;98024.35;;;3.30;81.76
62057;BME280;48016;50.284;18.860;2023-04-07T13:20:05;98025.01;;;3.30;82.04
62057;BME280;48016;50.284;18.860;2023-04-07T13:22:32;98025.70;;;3.33;82.01
62057;BME280;48016;50.284;18.860;2023-04-07T13:24:58;98027.55;;;3.37;82.06
62057;BME280;48016;50.284;18.860;2023-04-07T13:27:25;98026.20;;;3.38;81.94
62057;BME280;48016;50.284;18.860;2023-04-07T13:29:52;98028.12;;;3.39;82.09
62057;BME280;48016;50.284;18.860;2023-04-07T13:32:19;98034.73;;;3.40;82.04
62057;BME280;48016;50.284;18.860;2023-04-07T13:34:46;98034.73;;;3.39;81.98
62057;BME280;48016;50.284;18.860;2023-04-07T13:37:12;98035.67;;;3.40;82.20